createdAt,value
2022-10-30T00:00:01.612Z,101133.00
2022-10-30T00:08:41.782Z,101144.78
2022-10-30T00:11:42.817Z,101123.22
2022-10-30T00:14:20.219Z,101155.16
2022-10-30T00:17:04.660Z,101150.16
2022-10-30T00:19:53.435Z,101148.19
2022-10-30T00:22:22.511Z,101132.53
2022-10-30T00:24:50.460Z,101157.75
2022-10-30T00:27:24.823Z,101144.56
2022-10-30T00:29:54.317Z,101158.09
2022-10-30T00:34:41.109Z,101157.97
2022-10-30T00:38:14.088Z,101157.13
2022-10-30T00:41:20.066Z,101159.97
2022-10-30T00:43:54.404Z,101154.16
2022-10-30T00:46:35.699Z,101147.66
2022-10-30T00:49:18.847Z,101126.97
2022-10-30T00:58:43.542Z,101129.28
2022-10-30T01:01:18.464Z,101139.97
2022-10-30T01:04:08.072Z,101124.47
2022-10-30T01:06:55.071Z,101115.81
2022-10-30T01:12:41.917Z,101117.25
2022-10-30T01:19:14.700Z,101127.38
2022-10-30T01:22:35.183Z,101124.88
2022-10-30T01:25:37.488Z,101135.75
2022-10-30T01:28:26.666Z,101132.78
2022-10-30T01:31:04.420Z,101128.09
2022-10-30T01:33:37.972Z,101128.25
2022-10-30T01:36:11.318Z,101121.59
2022-10-30T01:39:02.944Z,101092.53
2022-10-30T01:41:59.529Z,101107.56
2022-10-30T01:45:04.945Z,101087.72
2022-10-30T01:48:02.226Z,101107.56
2022-10-30T01:51:06.481Z,101108.59
2022-10-30T01:54:23.705Z,101092.25
2022-10-30T01:57:03.316Z,101102.56
2022-10-30T01:59:50.605Z,101102.56
2022-10-30T02:02:41.177Z,101094.91
2022-10-30T02:05:34.786Z,101085.22
2022-10-30T02:08:17.327Z,101098.19
2022-10-30T02:14:26.033Z,101099.88
2022-10-30T02:16:54.452Z,101111.22
2022-10-30T02:22:25.873Z,101097.81
2022-10-30T02:25:16.050Z,101086.03
2022-10-30T02:28:00.163Z,101094.84
2022-10-30T02:30:44.224Z,101079.34
2022-10-30T02:33:31.211Z,101098.88
2022-10-30T02:36:01.416Z,101104.22
2022-10-30T02:38:46.887Z,101118.75
2022-10-30T02:41:42.684Z,101117.28
2022-10-30T02:44:35.053Z,101094.91
2022-10-30T02:47:09.569Z,101109.28
2022-10-30T02:52:58.451Z,101115.47
2022-10-30T02:55:30.611Z,101112.91
2022-10-30T02:58:08.005Z,101116.75
2022-10-30T03:00:38.205Z,101103.88
2022-10-30T03:03:10.842Z,101113.06
2022-10-30T03:06:00.573Z,101102.50
2022-10-30T03:08:37.559Z,101092.34
2022-10-30T03:15:04.675Z,101078.66
2022-10-30T03:17:34.362Z,101088.09
2022-10-30T03:20:24.767Z,101087.13
2022-10-30T03:23:12.320Z,101088.09
2022-10-30T03:25:51.003Z,101078.66
2022-10-30T03:28:53.000Z,101062.97
2022-10-30T03:31:38.928Z,101073.66
2022-10-30T03:35:13.082Z,101076.94
2022-10-30T03:37:55.139Z,101061.78
2022-10-30T03:41:02.060Z,101078.94
2022-10-30T03:44:16.486Z,101041.84
2022-10-30T03:50:14.399Z,101034.78
2022-10-30T03:53:02.499Z,101055.47
2022-10-30T03:55:53.385Z,101063.94
2022-10-30T04:02:09.613Z,101058.09
2022-10-30T04:04:37.767Z,101061.78
2022-10-30T04:08:28.408Z,101092.53
2022-10-30T04:13:50.918Z,101053.13
2022-10-30T04:16:34.325Z,101074.19
2022-10-30T04:22:17.072Z,101052.69
2022-10-30T04:24:51.135Z,101062.50
2022-10-30T04:27:28.170Z,101049.06
2022-10-30T04:30:01.053Z,101070.25
2022-10-30T04:32:38.128Z,101069.13
2022-10-30T04:35:17.085Z,101074.28
2022-10-30T04:37:45.437Z,101051.31
2022-10-30T04:40:43.405Z,101079.97
2022-10-30T04:43:12.926Z,101069.03
2022-10-30T04:45:43.081Z,101080.59
2022-10-30T04:48:12.876Z,101071.56
2022-10-30T04:50:43.863Z,101062.34
2022-10-30T04:53:18.493Z,101063.50
2022-10-30T04:55:56.154Z,101065.00
2022-10-30T04:58:33.131Z,101056.31
2022-10-30T05:01:06.168Z,101063.69
2022-10-30T05:03:35.252Z,101054.84
2022-10-30T05:06:18.262Z,101066.19
2022-10-30T05:08:49.529Z,101068.69
2022-10-30T05:12:16.765Z,101052.84
2022-10-30T05:15:13.052Z,101071.50
2022-10-30T05:17:54.010Z,101031.75
2022-10-30T05:21:02.234Z,101059.22
2022-10-30T05:23:37.172Z,101075.06
2022-10-30T05:26:31.947Z,101061.69
2022-10-30T05:29:06.175Z,101051.03
2022-10-30T05:31:37.201Z,101058.81
2022-10-30T05:34:23.286Z,101066.38
2022-10-30T05:36:54.455Z,101052.03
2022-10-30T05:39:28.558Z,101043.59
2022-10-30T05:41:58.288Z,101039.06
2022-10-30T05:44:59.099Z,101036.16
2022-10-30T05:47:27.007Z,101038.50
2022-10-30T05:50:06.847Z,101035.81
2022-10-30T05:52:44.992Z,101020.09
2022-10-30T05:55:42.735Z,101042.19
2022-10-30T06:01:29.438Z,101039.91
2022-10-30T06:04:03.900Z,101026.19
2022-10-30T06:09:22.716Z,101031.66
2022-10-30T06:12:41.278Z,100992.97
2022-10-30T06:15:50.027Z,101004.41
2022-10-30T06:18:22.643Z,100979.06
2022-10-30T06:21:01.804Z,101001.34
2022-10-30T06:24:06.645Z,100986.66
2022-10-30T06:26:53.057Z,100998.31
2022-10-30T06:32:18.113Z,100977.94
2022-10-30T06:34:54.119Z,100980.94
2022-10-30T06:37:42.793Z,100988.31
2022-10-30T06:40:12.986Z,100992.66
2022-10-30T06:42:47.943Z,100984.25
2022-10-30T06:45:58.681Z,100984.91
2022-10-30T06:51:58.445Z,100975.59
2022-10-30T06:55:04.769Z,100978.34
2022-10-30T06:57:55.488Z,101001.16
2022-10-30T07:00:42.139Z,100963.00
2022-10-30T07:03:30.996Z,101004.34
2022-10-30T07:05:59.012Z,101007.50
2022-10-30T07:08:42.979Z,100996.28
2022-10-30T07:11:14.162Z,100974.66
2022-10-30T07:13:58.659Z,101002.97
2022-10-30T07:16:39.765Z,101002.13
2022-10-30T07:19:09.443Z,101001.28
2022-10-30T07:21:37.516Z,101007.97
2022-10-30T07:24:07.942Z,101011.00
2022-10-30T07:26:46.239Z,101020.25
2022-10-30T07:29:44.878Z,101025.94
2022-10-30T07:32:45.303Z,101017.13
2022-10-30T07:35:43.775Z,101012.84
2022-10-30T07:38:32.341Z,101005.84
2022-10-30T07:41:26.295Z,101016.19
2022-10-30T07:44:16.585Z,101022.03
2022-10-30T07:47:19.984Z,101024.88
2022-10-30T07:54:11.950Z,101008.72
2022-10-30T07:56:39.891Z,101020.47
2022-10-30T07:59:27.236Z,101026.44
2022-10-30T08:02:33.417Z,101025.34
2022-10-30T08:05:42.223Z,101019.41
2022-10-30T08:08:13.810Z,101012.06
2022-10-30T08:15:34.796Z,101029.28
2022-10-30T08:18:25.726Z,101013.06
2022-10-30T08:21:01.191Z,101016.84
2022-10-30T08:23:42.466Z,101035.50
2022-10-30T08:26:17.310Z,101044.91
2022-10-30T08:28:53.451Z,101050.75
2022-10-30T08:31:23.815Z,101037.66
2022-10-30T08:34:10.820Z,101063.03
2022-10-30T08:36:55.271Z,101061.72
2022-10-30T08:39:26.655Z,101073.06
2022-10-30T08:42:07.286Z,101067.13
2022-10-30T08:44:41.832Z,101070.78
2022-10-30T08:47:46.237Z,101075.50
2022-10-30T08:50:19.564Z,101065.19
2022-10-30T08:52:54.739Z,101065.22
2022-10-30T08:55:23.639Z,101093.78
2022-10-30T08:58:21.938Z,101087.63
2022-10-30T09:00:51.343Z,101095.81
2022-10-30T09:03:21.095Z,101088.03
2022-10-30T09:06:09.545Z,101101.75
2022-10-30T09:09:00.736Z,101091.75
2022-10-30T09:11:45.958Z,101087.41
2022-10-30T09:14:14.623Z,101084.09
2022-10-30T09:16:42.965Z,101080.06
2022-10-30T09:19:18.700Z,101087.41
2022-10-30T09:21:47.871Z,101093.91
2022-10-30T09:24:15.956Z,101104.94
2022-10-30T09:26:43.975Z,101094.91
2022-10-30T09:29:18.127Z,101077.38
2022-10-30T09:32:09.844Z,101086.25
2022-10-30T09:35:14.059Z,101090.75
2022-10-30T09:37:45.072Z,101065.53
2022-10-30T09:40:23.808Z,101069.38
2022-10-30T09:42:52.765Z,101054.38
2022-10-30T09:45:50.279Z,101054.50
2022-10-30T09:48:39.645Z,101073.88
2022-10-30T09:51:42.847Z,101082.09
2022-10-30T09:54:21.481Z,101097.78
2022-10-30T09:57:02.355Z,101126.31
2022-10-30T09:59:41.526Z,101108.72
2022-10-30T10:02:22.799Z,101107.03
2022-10-30T10:04:53.816Z,101119.34
2022-10-30T10:07:43.863Z,101119.63
2022-10-30T10:10:42.007Z,101128.28
2022-10-30T10:13:27.674Z,101135.63
2022-10-30T10:15:59.493Z,101143.25
2022-10-30T10:18:34.986Z,101150.81
2022-10-30T10:21:12.442Z,101155.59
2022-10-30T10:23:47.236Z,101143.25
2022-10-30T10:26:29.675Z,101151.09
2022-10-30T10:29:16.393Z,101166.78
2022-10-30T10:31:47.649Z,101177.78
2022-10-30T10:34:26.161Z,101144.13
2022-10-30T10:37:00.232Z,101150.78
2022-10-30T10:40:02.891Z,101159.59
2022-10-30T10:42:41.322Z,101157.94
2022-10-30T10:45:21.069Z,101172.66
2022-10-30T10:48:18.061Z,101188.66
2022-10-30T10:51:02.862Z,101168.78
2022-10-30T10:53:34.993Z,101179.97
2022-10-30T10:56:06.735Z,101158.31
2022-10-30T10:58:45.964Z,101172.69
2022-10-30T11:01:21.663Z,101196.06
2022-10-30T11:03:59.098Z,101175.66
2022-10-30T11:06:28.589Z,101184.75
2022-10-30T11:09:02.748Z,101180.88
2022-10-30T11:11:44.732Z,101180.06
2022-10-30T11:14:16.466Z,101156.84
2022-10-30T11:16:55.047Z,101169.75
2022-10-30T11:19:23.429Z,101186.16
2022-10-30T11:21:52.941Z,101164.09
2022-10-30T11:24:28.691Z,101177.16
2022-10-30T11:26:57.901Z,101169.88
2022-10-30T11:29:28.839Z,101154.84
2022-10-30T11:32:17.587Z,101151.19
2022-10-30T11:34:45.869Z,101160.88
2022-10-30T11:38:14.311Z,101180.63
2022-10-30T11:40:48.697Z,101171.09
2022-10-30T11:47:11.529Z,101184.16
2022-10-30T11:49:49.180Z,101187.31
2022-10-30T11:52:41.324Z,101186.00
2022-10-30T11:55:15.853Z,101187.63
2022-10-30T11:58:03.095Z,101178.59
2022-10-30T12:00:46.450Z,101182.25
2022-10-30T12:06:19.492Z,101179.25
2022-10-30T12:09:10.460Z,101162.19
2022-10-30T12:11:39.249Z,101168.00
2022-10-30T12:14:07.440Z,101146.31
2022-10-30T12:16:46.189Z,101164.47
2022-10-30T12:23:13.857Z,101138.50
2022-10-30T12:25:49.690Z,101159.75
2022-10-30T12:28:37.240Z,101145.34
2022-10-30T12:31:15.838Z,101165.09
2022-10-30T12:41:01.522Z,101162.22
2022-10-30T12:43:30.343Z,101161.03
2022-10-30T12:46:35.472Z,101164.78
2022-10-30T12:50:02.388Z,101152.78
2022-10-30T12:52:47.292Z,101135.88
2022-10-30T12:55:45.841Z,101145.22
2022-10-30T12:58:18.108Z,101162.75
2022-10-30T13:01:13.100Z,101161.81
2022-10-30T13:06:59.476Z,101144.00
2022-10-30T13:09:36.606Z,101153.16
2022-10-30T13:12:51.963Z,101164.72
2022-10-30T13:15:27.506Z,101151.28
2022-10-30T13:18:40.032Z,101154.50
2022-10-30T13:22:29.253Z,101162.94
2022-10-30T13:25:04.446Z,101140.97
2022-10-30T13:28:07.067Z,101135.03
2022-10-30T13:31:21.180Z,101150.78
2022-10-30T13:34:33.172Z,101164.97
2022-10-30T13:41:08.417Z,101146.22
2022-10-30T13:50:58.309Z,101126.81
2022-10-30T13:56:42.766Z,101145.13
2022-10-30T13:59:42.440Z,101155.81
2022-10-30T14:02:25.938Z,101154.56
2022-10-30T14:05:04.560Z,101150.72
2022-10-30T14:39:40.981Z,101135.19
2022-10-30T14:49:52.565Z,101141.66
2022-10-30T14:53:01.067Z,101164.97
2022-10-30T14:58:33.094Z,101237.31
2022-10-30T15:01:27.756Z,101234.28
2022-10-30T15:04:05.716Z,101223.53
2022-10-30T15:06:54.207Z,101207.63
2022-10-30T15:09:41.014Z,101213.28
2022-10-30T15:12:35.194Z,101187.50
2022-10-30T15:15:04.399Z,101217.44
2022-10-30T15:17:33.620Z,101214.63
2022-10-30T15:20:02.996Z,101215.34
2022-10-30T15:22:34.273Z,101218.56
2022-10-30T15:25:02.481Z,101217.75
2022-10-30T15:27:35.921Z,101218.72
2022-10-30T15:30:04.296Z,101227.09
2022-10-30T15:32:38.051Z,101222.56
2022-10-30T15:35:12.364Z,101215.72
2022-10-30T15:40:41.070Z,101217.41
2022-10-30T15:43:14.252Z,101223.41
2022-10-30T15:45:43.166Z,101214.72
2022-10-30T15:48:23.827Z,101192.28
2022-10-30T15:50:57.685Z,101208.31
2022-10-30T15:53:30.814Z,101240.09
2022-10-30T15:56:05.001Z,101222.22
2022-10-30T16:02:38.073Z,101221.03
2022-10-30T16:05:26.785Z,101239.75
2022-10-30T16:07:58.319Z,101212.00
2022-10-30T16:10:28.200Z,101224.00
2022-10-30T16:13:15.252Z,101222.00
2022-10-30T16:15:52.380Z,101244.78
2022-10-30T16:18:22.045Z,101234.72
2022-10-30T16:20:51.768Z,101247.63
2022-10-30T16:23:37.666Z,101227.06
2022-10-30T16:26:06.365Z,101255.81
2022-10-30T16:28:37.913Z,101225.72
2022-10-30T16:31:16.467Z,101251.47
2022-10-30T16:33:49.216Z,101244.09
2022-10-30T16:36:22.461Z,101261.00
2022-10-30T16:42:07.096Z,101250.81
2022-10-30T16:47:26.809Z,101279.91
2022-10-30T16:50:00.543Z,101263.19
2022-10-30T16:52:35.448Z,101274.91
2022-10-30T16:55:05.721Z,101277.91
2022-10-30T16:57:38.375Z,101260.84
2022-10-30T17:00:26.005Z,101284.09
2022-10-30T17:03:12.205Z,101286.44
2022-10-30T17:05:41.469Z,101269.22
2022-10-30T17:11:20.073Z,101296.81
2022-10-30T17:14:10.907Z,101297.13
2022-10-30T17:16:40.656Z,101283.75
2022-10-30T17:19:44.226Z,101279.25
2022-10-30T17:22:28.083Z,101310.16
2022-10-30T17:24:56.425Z,101286.91
2022-10-30T17:28:14.093Z,101296.44
2022-10-30T17:30:52.847Z,101286.72
2022-10-30T17:33:59.140Z,101269.50
2022-10-30T17:36:55.132Z,101290.56
2022-10-30T17:39:23.476Z,101317.31
2022-10-30T17:42:02.065Z,101323.00
2022-10-30T17:45:14.644Z,101305.75
2022-10-30T17:47:45.023Z,101339.03
2022-10-30T17:50:40.178Z,101322.13
2022-10-30T17:53:18.542Z,101304.81
2022-10-30T17:55:51.803Z,101333.47
2022-10-30T17:59:01.105Z,101316.19
2022-10-30T18:02:09.990Z,101339.69
2022-10-30T18:04:44.047Z,101338.31
2022-10-30T18:07:34.167Z,101335.31
2022-10-30T18:10:11.779Z,101344.84
2022-10-30T18:12:43.443Z,101335.13
2022-10-30T18:15:53.201Z,101323.88
2022-10-30T18:21:42.176Z,101361.72
2022-10-30T18:24:23.724Z,101373.44
2022-10-30T18:29:51.760Z,101353.34
2022-10-30T18:35:49.475Z,101358.03
2022-10-30T18:38:19.720Z,101368.72
2022-10-30T18:41:15.847Z,101366.22
2022-10-30T18:44:16.413Z,101373.56
2022-10-30T18:50:24.135Z,101375.72
2022-10-30T18:54:07.522Z,101386.78
2022-10-30T18:56:52.669Z,101394.16
2022-10-30T19:06:38.993Z,101398.63
2022-10-30T19:09:25.896Z,101388.19
2022-10-30T19:12:35.747Z,101362.56
2022-10-30T19:15:02.047Z,101401.78
2022-10-30T19:21:03.194Z,101372.53
2022-10-30T19:23:52.810Z,101393.78
2022-10-30T19:26:28.273Z,101387.75
2022-10-30T19:29:35.451Z,101411.66
2022-10-30T19:32:24.410Z,101390.88
2022-10-30T19:35:22.779Z,101409.94
2022-10-30T19:42:39.964Z,101406.63
2022-10-30T19:51:25.889Z,101412.13
2022-10-30T20:04:55.079Z,101437.19
2022-10-30T20:07:39.097Z,101396.59
2022-10-30T20:10:21.012Z,101436.13
2022-10-30T20:17:25.862Z,101441.78
2022-10-30T20:27:57.893Z,101404.75
2022-10-30T20:34:51.794Z,101426.38
2022-10-30T20:38:39.277Z,101429.88
2022-10-30T22:46:20.126Z,101360.63
